Astoria Heliport

3NY2 · 纽约州, 美国

罗盘
风向 的 风向 040° 直升机
风: 10 kt, 3 beaufort
0 ft 6.000 12.000 18.000 24.000 30.000
Cloud Cloud
FEW 6.500
Cloud Cloud Cloud Cloud
SCT 12.000
Cloud Cloud Cloud Cloud
SCT 16.000
Cloud Cloud Cloud Cloud Cloud Cloud
BKN 20.000
Cloud Cloud Cloud Cloud Cloud Cloud
BKN 25.000
METAR KLGA 161651Z 04010KT 10SM FEW065 SCT120 SCT160 BKN200 BKN250 22/07 A3024 RMK AO2 SLP241 T02220072 $

METAR Astoria Heliport - 3NY2

Astoria Heliport是,美国中的直升机场。 该机场位于纬度40,78621和经度-73,91208。 这个机场没有ICAO代码,我们使用US-7679作为参考。 该机场的本地机场标识(FAA LID)为3NY2。 机场在New York FIR中。

该航空气象观测是针对La Guardia Airport在2024年6月16日 12:51, 当地时间进行的。

机场观察

风向为040°,速度为10 kt。

可见度为10 mi。

有几云在6.500 ft的高度, 疏云,零星散落的云朵在12.000 ft的高度, 疏云,零星散落的云朵在16.000 ft的高度, 碎云在20.000 ft的高度 和 碎云在25.000 ft的高度。 破损或更高的上限为20.000 ft。

温度和风寒是22 °C。 露点为7 °C,相对湿度为38%。 海平面上的气压为30,24 inHg (QNH)。

白天

今天,太阳从05:23升起,在20:29降落。 这适用于Astoria Heliport,世界夏令时可能有所不同。 当地时间与世界标准时间之间的时差为-4 小时。 夏令时目前正在进行中。

公司介绍

我们没有关于这个机场的公司信息。

体会

到Vliegles.nl去找飞行课程,跳伞和其他飞行体验。 浏览页面,了解Astoria Heliport附近所有可用的活动。 你也可以使用搜索功能来寻找你所在地附近的特定飞行课程、跳伞或其他飞行体验。

乌云

6.500 ft FEW 几云
12.000 ft SCT 疏云,零星散落的云朵
16.000 ft SCT 疏云,零星散落的云朵
20.000 ft BKN 碎云
25.000 ft BKN 碎云

温度 & 天气

温度 22,2 °C
露点 7,2 °C
相对湿度 38%
Kp-index 0 (0-9)

评论

AO2自动气象站,可确定降水类型
SLP241海平面压力为30,24 inHg (30,24 inHg)
T02220072温度为22,2 °C (72,0 °F),露点为7,2 °C (45,0 °F)
$该气象站需要维护

白天

日出
05:23
中午
12:56
日落
20:29 (6:53)

小工具

你想在你的网站上有一个关于Astoria Heliport的当前航空天气(METAR)的小部件吗?

显示HTML代码
报告变更